TimeMST,TemperatureF,Dew PointF,Humidity,Sea Level PressureIn,VisibilityMPH,Wind Direction,Wind SpeedMPH,Gust SpeedMPH,PrecipitationIn,Events,Conditions,WindDirDegrees,DateUTC
12:53 AM,30.9,26.1,82,30.19,10.0,WNW,9.2,-,N/A,,Scattered Clouds,300,2013-12-14 07:53:00
1:53 AM,30.9,26.1,82,30.20,10.0,WNW,6.9,-,N/A,,Overcast,300,2013-12-14 08:53:00
2:53 AM,30.9,26.1,82,30.21,10.0,WNW,5.8,-,N/A,,Overcast,290,2013-12-14 09:53:00
3:53 AM,41.0,25.0,53,30.19,10.0,WNW,6.9,-,N/A,,Overcast,300,2013-12-14 10:53:00
4:53 AM,46.0,25.0,44,30.18,10.0,NW,5.8,-,N/A,,Overcast,310,2013-12-14 11:53:00
5:53 AM,48.0,23.0,37,30.19,10.0,NW,11.5,-,N/A,,Overcast,310,2013-12-14 12:53:00
6:53 AM,46.0,21.9,39,30.22,10.0,WNW,9.2,-,N/A,,Overcast,300,2013-12-14 13:53:00
7:53 AM,39.9,21.0,47,30.24,10.0,West,4.6,-,N/A,,Overcast,280,2013-12-14 14:53:00
8:53 AM,50.0,21.9,33,30.23,10.0,West,8.1,-,N/A,,Mostly Cloudy,260,2013-12-14 15:53:00
9:53 AM,48.9,19.9,32,30.23,10.0,West,12.7,-,N/A,,Partly Cloudy,270,2013-12-14 16:53:00
10:53 AM,51.1,19.0,28,30.22,10.0,West,13.8,-,N/A,,Clear,270,2013-12-14 17:53:00
11:53 AM,55.0,19.9,25,30.17,10.0,WSW,11.5,-,N/A,,Clear,250,2013-12-14 18:53:00
12:53 PM,55.0,19.0,24,30.16,10.0,West,13.8,-,N/A,,Clear,260,2013-12-14 19:53:00
1:53 PM,53.1,19.9,27,30.14,10.0,West,15.0,20.7,N/A,,Clear,260,2013-12-14 20:53:00
2:53 PM,52.0,21.0,30,30.13,10.0,West,16.1,21.9,N/A,,Clear,270,2013-12-14 21:53:00
3:53 PM,51.1,21.0,31,30.11,10.0,West,12.7,20.7,N/A,,Clear,280,2013-12-14 22:53:00
4:53 PM,45.0,21.0,39,30.12,10.0,WNW,15.0,-,N/A,,Clear,290,2013-12-14 23:53:00
5:53 PM,43.0,21.0,42,30.12,10.0,WNW,16.1,24.2,N/A,,Clear,290,2013-12-15 00:53:00
6:53 PM,48.0,21.0,34,30.12,10.0,West,10.4,-,N/A,,Clear,260,2013-12-15 01:53:00
7:53 PM,46.0,21.0,37,30.14,10.0,West,16.1,-,N/A,,Clear,270,2013-12-15 02:53:00
8:53 PM,44.1,21.0,40,30.10,10.0,WNW,15.0,-,N/A,,Clear,290,2013-12-15 03:53:00
9:53 PM,46.9,19.9,34,30.11,10.0,SW,4.6,-,N/A,,Clear,230,2013-12-15 04:53:00
10:53 PM,-9999,-9999,N/A,30.12,10.0,WSW,4.6,-,N/A,,Clear,250,2013-12-15 05:53:00
11:53 PM,-9999,-9999,N/A,30.12,10.0,West,24.2,31.1,N/A,,Clear,280,2013-12-15 06:53:00